Time;durP1;ratioP1;P1;durP2;ratioP2;P2;SDS_P1;SDS_P2;PMS_P1;PMS_P2;Temp;Humidity;BMP_temperature;BMP_pressure;BME280_temperature;BME280_humidity;BME280_pressure;Samples;Min_cycle;Max_cycle;Signal;HPM_P1;HPM_P2
2021/01/17 00:01:32;;;;;;;93.72;31.58;;;-12.30;49.90;;;;;;5125039;28;20028;-84
2021/01/17 00:03:58;;;;;;;90.75;33.35;;;-12.30;49.80;;;;;;5122939;28;20358;-84
2021/01/17 00:06:23;;;;;;;103.70;37.63;;;-12.30;49.70;;;;;;5117148;28;20078;-84
2021/01/17 00:08:49;;;;;;;102.50;32.17;;;-12.30;49.60;;;;;;5116524;28;20076;-84
2021/01/17 00:11:15;;;;;;;80.32;27.15;;;-12.20;49.70;;;;;;5115745;28;20035;-84
2021/01/17 00:13:40;;;;;;;93.72;30.80;;;-12.30;49.60;;;;;;5097221;28;20026;-84
2021/01/17 00:16:06;;;;;;;75.63;27.42;;;-12.30;49.50;;;;;;5115863;28;20031;-84
2021/01/17 00:18:32;;;;;;;81.07;28.65;;;-12.30;49.40;;;;;;5115333;28;20035;-84
2021/01/17 00:20:57;;;;;;;105.75;32.95;;;-12.30;49.30;;;;;;5115482;28;20030;-84
2021/01/17 00:23:23;;;;;;;104.43;34.65;;;-12.40;49.30;;;;;;5115271;28;20085;-84
2021/01/17 00:25:49;;;;;;;149.82;45.83;;;-12.40;49.30;;;;;;5115230;28;20038;-84
2021/01/17 00:28:14;;;;;;;136.38;40.45;;;-12.50;49.20;;;;;;5114677;28;20046;-83
2021/01/17 00:30:40;;;;;;;147.77;44.00;;;-12.50;49.20;;;;;;5114880;28;20039;-84
2021/01/17 00:33:06;;;;;;;130.25;41.60;;;-12.60;49.20;;;;;;5097340;28;20098;-84
2021/01/17 00:35:33;;;;;;;132.55;41.60;;;-12.60;49.40;;;;;;5115107;28;20378;-83
2021/01/17 00:38:01;;;;;;;133.60;42.30;;;-12.60;49.50;;;;;;5115506;28;20493;-84
2021/01/17 00:40:27;;;;;;;112.43;38.92;;;-12.60;49.70;;;;;;5114691;28;20096;-83
2021/01/17 00:42:54;;;;;;;113.85;36.65;;;-12.50;49.90;;;;;;5115972;28;20031;-83
2021/01/17 00:45:23;;;;;;;112.13;35.95;;;-12.50;49.90;;;;;;5122413;28;20023;-83
2021/01/17 00:47:50;;;;;;;102.97;34.45;;;-12.50;49.90;;;;;;5104435;28;20047;-83
2021/01/17 00:50:17;;;;;;;83.05;30.02;;;-12.40;50.00;;;;;;5120537;28;20039;-83
2021/01/17 00:52:44;;;;;;;96.30;31.00;;;-12.30;50.00;;;;;;5124107;28;20027;-84
2021/01/17 00:55:10;;;;;;;91.65;31.13;;;-12.30;49.90;;;;;;5115273;28;20066;-84
2021/01/17 00:57:36;;;;;;;106.97;33.28;;;-12.30;49.80;;;;;;5114575;28;20454;-84
2021/01/17 01:00:07;;;;;;;85.57;30.25;;;-12.30;49.70;;;;;;5115350;28;20038;-84
2021/01/17 01:02:33;;;;;;;86.53;26.92;;;-12.20;49.90;;;;;;5114265;28;20493;-84
2021/01/17 01:04:59;;;;;;;91.57;30.70;;;-12.20;49.90;;;;;;5096434;28;20062;-84
2021/01/17 01:07:26;;;;;;;87.40;31.15;;;-12.20;49.90;;;;;;5098423;28;20023;-84
2021/01/17 01:09:52;;;;;;;92.03;29.08;;;-12.20;49.80;;;;;;5095058;28;20474;-83
2021/01/17 01:12:18;;;;;;;92.53;31.70;;;-12.20;49.80;;;;;;5112983;28;20062;-84
2021/01/17 01:14:43;;;;;;;94.90;31.92;;;-12.20;49.80;;;;;;5112797;28;20023;-83
2021/01/17 01:17:09;;;;;;;105.03;34.33;;;-12.10;49.90;;;;;;5112960;28;20165;-83
2021/01/17 01:19:34;;;;;;;77.78;28.65;;;-12.10;49.90;;;;;;5112738;28;20024;-83
2021/01/17 01:22:03;;;;;;;76.28;29.23;;;-12.10;49.90;;;;;;5094752;28;20551;-84
2021/01/17 01:24:32;;;;;;;86.50;30.63;;;-12.00;49.90;;;;;;5112747;28;20023;-84
2021/01/17 01:26:58;;;;;;;100.32;34.80;;;-12.00;49.80;;;;;;5112875;28;20075;-84
2021/01/17 01:29:24;;;;;;;96.05;34.83;;;-12.00;49.80;;;;;;5112939;28;20020;-83
2021/01/17 01:31:50;;;;;;;97.05;37.35;;;-12.00;49.80;;;;;;5094439;28;20096;-84
2021/01/17 01:34:15;;;;;;;112.22;38.92;;;-12.00;49.70;;;;;;5112871;28;20093;-84
2021/01/17 01:36:42;;;;;;;124.15;41.13;;;-12.00;49.70;;;;;;5112605;28;20421;-84
2021/01/17 01:39:10;;;;;;;111.70;39.92;;;-12.00;49.70;;;;;;5112689;28;20015;-85
2021/01/17 01:41:38;;;;;;;117.60;37.20;;;-11.90;49.90;;;;;;5112638;28;20020;-84
2021/01/17 01:44:05;;;;;;;116.10;38.65;;;-11.90;49.80;;;;;;5110705;28;20026;-84
2021/01/17 01:46:32;;;;;;;99.60;34.22;;;-11.90;49.70;;;;;;5112315;28;20053;-84
2021/01/17 01:49:00;;;;;;;93.30;29.27;;;-11.80;49.70;;;;;;5093920;28;20035;-84
2021/01/17 01:51:27;;;;;;;95.15;33.05;;;-11.80;49.60;;;;;;5114111;28;20051;-85
2021/01/17 01:53:55;;;;;;;94.85;33.17;;;-11.80;49.60;;;;;;5115402;28;20024;-83
2021/01/17 01:56:21;;;;;;;91.60;32.70;;;-11.80;49.50;;;;;;5115778;28;20501;-84
2021/01/17 01:58:47;;;;;;;120.85;37.92;;;-11.70;49.50;;;;;;5115920;28;20032;-84
2021/01/17 02:01:13;;;;;;;112.30;36.85;;;-11.80;49.50;;;;;;5116675;28;20157;-84
2021/01/17 02:03:44;;;;;;;92.28;31.35;;;-11.70;49.60;;;;;;5114519;28;20070;-85
2021/01/17 02:06:13;;;;;;;110.75;33.67;;;-11.70;49.50;;;;;;5095157;28;20033;-85
2021/01/17 02:09:16;;;;;;;101.30;33.33;;;-11.70;49.60;;;;;;5095449;28;20028;-85
2021/01/17 02:12:03;;;;;;;102.38;33.33;;;-11.70;49.60;;;;;;5117908;28;20050;-85
2021/01/17 02:14:38;;;;;;;97.03;34.83;;;-11.70;49.50;;;;;;5118145;28;20038;-83
2021/01/17 02:17:14;;;;;;;106.07;36.80;;;-11.70;49.50;;;;;;5117655;28;20081;-83
2021/01/17 02:20:25;;;;;;;106.50;36.35;;;-11.70;49.50;;;;;;5117981;28;20045;-83
2021/01/17 02:23:00;;;;;;;109.80;35.97;;;-11.70;49.50;;;;;;5113859;28;20044;-83
2021/01/17 02:25:27;;;;;;;109.05;37.30;;;-11.70;49.40;;;;;;5117912;28;20069;-83
2021/01/17 02:27:58;;;;;;;121.60;39.90;;;-11.70;49.40;;;;;;5099460;28;20428;-84
2021/01/17 02:30:26;;;;;;;123.82;41.53;;;-11.70;49.40;;;;;;5100226;28;20043;-83
2021/01/17 02:32:59;;;;;;;121.45;39.47;;;-11.70;49.40;;;;;;5118436;28;20051;-84
2021/01/17 02:35:25;;;;;;;105.10;37.85;;;-11.70;49.50;;;;;;5117564;28;20024;-84
2021/01/17 02:37:56;;;;;;;102.10;34.58;;;-11.70;49.50;;;;;;5117698;28;20448;-84
2021/01/17 02:40:54;;;;;;;99.10;33.20;;;-11.70;49.50;;;;;;5117391;28;20030;-84
2021/01/17 02:43:21;;;;;;;98.68;32.70;;;-11.70;49.50;;;;;;5117682;28;20132;-84
2021/01/17 02:45:47;;;;;;;107.95;31.85;;;-11.70;49.50;;;;;;5117346;28;20020;-84
2021/01/17 02:48:13;;;;;;;104.40;31.25;;;-11.70;49.50;;;;;;5117250;28;20382;-84
2021/01/17 02:50:38;;;;;;;97.25;32.63;;;-11.60;49.60;;;;;;5117045;28;20488;-84
2021/01/17 02:53:10;;;;;;;146.70;42.33;;;-11.60;49.60;;;;;;5117236;28;20024;-84
2021/01/17 02:55:38;;;;;;;148.88;43.70;;;-11.60;49.70;;;;;;5116885;28;20023;-84
2021/01/17 02:58:07;;;;;;;137.77;39.13;;;-11.60;49.70;;;;;;5116990;28;20052;-83
2021/01/17 03:00:35;;;;;;;127.03;41.05;;;-11.60;49.70;;;;;;5118345;28;20023;-84
2021/01/17 03:03:03;;;;;;;191.77;54.15;;;-11.50;49.70;;;;;;5103008;28;20050;-84
2021/01/17 03:05:29;;;;;;;406.50;104.20;;;-11.50;49.70;;;;;;5117976;28;20020;-84
2021/01/17 03:07:57;;;;;;;390.52;114.70;;;-11.50;49.60;;;;;;5118959;28;20374;-84
2021/01/17 03:10:24;;;;;;;234.23;76.70;;;-11.50;49.50;;;;;;5118135;28;20390;-84
2021/01/17 03:12:52;;;;;;;217.20;68.50;;;-11.50;49.50;;;;;;5099389;28;20023;-84
2021/01/17 03:15:19;;;;;;;167.88;56.22;;;-11.60;49.50;;;;;;5099099;28;20031;-84
2021/01/17 03:17:45;;;;;;;182.57;55.15;;;-11.60;49.60;;;;;;5116583;28;20028;-84
2021/01/17 03:20:11;;;;;;;152.13;43.90;;;-11.50;49.60;;;;;;5116265;28;20020;-83
2021/01/17 03:22:37;;;;;;;127.00;41.13;;;-11.60;49.50;;;;;;5115877;28;20069;-84
2021/01/17 03:25:03;;;;;;;110.15;34.33;;;-11.60;49.50;;;;;;5116735;28;20024;-83
2021/01/17 03:27:29;;;;;;;110.97;35.42;;;-11.60;49.50;;;;;;5116845;28;20065;-83
2021/01/17 03:29:55;;;;;;;72.93;25.75;;;-11.60;49.60;;;;;;5098096;28;20031;-83
2021/01/17 03:32:21;;;;;;;63.22;22.63;;;-11.60;49.60;;;;;;5116794;28;20068;-84
2021/01/17 03:34:49;;;;;;;61.42;22.33;;;-11.60;49.60;;;;;;5116084;28;20024;-84
2021/01/17 03:37:17;;;;;;;81.22;27.67;;;-11.60;49.60;;;;;;5110847;28;20036;-84
2021/01/17 03:39:43;;;;;;;80.85;28.48;;;-11.60;49.50;;;;;;5116031;28;20118;-84
2021/01/17 03:42:09;;;;;;;96.93;31.42;;;-11.60;49.50;;;;;;5116500;28;20062;-84
2021/01/17 03:44:36;;;;;;;88.15;29.65;;;-11.60;49.50;;;;;;5115954;28;20069;-84
2021/01/17 03:47:02;;;;;;;74.95;26.63;;;-11.70;49.60;;;;;;5116255;28;20398;-84
2021/01/17 03:49:27;;;;;;;80.43;28.27;;;-11.70;49.60;;;;;;5116417;28;20039;-83
2021/01/17 03:51:53;;;;;;;75.43;26.17;;;-11.70;49.60;;;;;;5116347;28;20024;-84
2021/01/17 03:54:19;;;;;;;65.28;25.75;;;-11.70;49.60;;;;;;5116104;28;20030;-83
2021/01/17 03:56:46;;;;;;;82.32;27.90;;;-11.80;49.60;;;;;;5115860;28;20052;-83
2021/01/17 03:59:12;;;;;;;70.22;23.50;;;-11.80;49.70;;;;;;5116691;28;20351;-83
2021/01/17 04:01:38;;;;;;;71.68;27.15;;;-11.80;49.60;;;;;;5116079;28;20024;-83
2021/01/17 04:04:04;;;;;;;77.63;28.27;;;-11.80;49.50;;;;;;5115828;28;20193;-83
2021/01/17 04:06:29;;;;;;;103.28;35.72;;;-11.90;49.30;;;;;;5097777;28;20034;-84
2021/01/17 04:08:55;;;;;;;171.27;48.80;;;-12.00;49.20;;;;;;5115478;28;20433;-83
2021/01/17 04:11:21;;;;;;;143.52;43.33;;;-12.10;49.10;;;;;;5115838;28;20093;-84
2021/01/17 04:13:46;;;;;;;183.02;57.85;;;-12.20;49.20;;;;;;5097498;28;20020;-84
2021/01/17 04:16:12;;;;;;;192.25;63.30;;;-12.30;49.40;;;;;;5121675;28;20023;-83
2021/01/17 04:18:38;;;;;;;159.90;52.90;;;-12.30;49.60;;;;;;5126160;28;20028;-83
2021/01/17 04:21:03;;;;;;;140.95;46.38;;;-12.30;49.60;;;;;;5127161;28;20027;-82
2021/01/17 04:23:29;;;;;;;123.30;40.78;;;-12.40;49.70;;;;;;5125088;28;20028;-84
2021/01/17 04:25:55;;;;;;;110.50;36.97;;;-12.40;49.70;;;;;;5115896;28;20028;-85
2021/01/17 04:28:21;;;;;;;106.13;36.25;;;-12.40;49.80;;;;;;5098909;28;20040;-84
2021/01/17 04:30:46;;;;;;;108.88;38.17;;;-12.40;49.80;;;;;;5117111;28;20020;-84
2021/01/17 04:33:18;;;;;;;92.43;32.72;;;-12.40;49.80;;;;;;5115043;28;20410;-84
2021/01/17 04:35:44;;;;;;;91.72;34.90;;;-12.30;49.80;;;;;;5114444;28;20370;-84
2021/01/17 04:38:10;;;;;;;105.57;35.58;;;-12.30;49.80;;;;;;5114613;28;20359;-84
2021/01/17 04:40:36;;;;;;;101.82;38.03;;;-12.30;49.80;;;;;;5114434;28;20032;-83
2021/01/17 04:43:11;;;;;;;104.40;35.80;;;-12.30;49.80;;;;;;5093077;28;20413;-84
2021/01/17 04:45:37;;;;;;;120.85;40.97;;;-12.20;49.80;;;;;;5114124;28;20035;-85
2021/01/17 04:48:04;;;;;;;107.95;40.85;;;-12.20;49.80;;;;;;5113416;28;20031;-85
2021/01/17 04:50:32;;;;;;;159.90;46.70;;;-12.20;49.70;;;;;;5095404;28;20494;-86
2021/01/17 04:52:59;;;;;;;191.80;54.90;;;-12.20;49.70;;;;;;5114173;28;20042;-83
2021/01/17 04:55:26;;;;;;;149.35;50.53;;;-12.10;49.70;;;;;;5113593;28;20020;-84
2021/01/17 04:58:08;;;;;;;122.68;40.42;;;-12.10;49.60;;;;;;5095577;28;20134;-85
2021/01/17 05:00:39;;;;;;;122.88;40.67;;;-12.10;49.60;;;;;;5112927;28;20029;-85
2021/01/17 05:03:11;;;;;;;145.60;49.38;;;-12.10;49.50;;;;;;5095674;28;20434;-85
2021/01/17 05:05:47;;;;;;;152.00;53.28;;;-12.10;49.50;;;;;;5113745;28;20098;-85
2021/01/17 05:08:28;;;;;;;213.60;74.22;;;-12.10;49.30;;;;;;5095239;28;20360;-86
2021/01/17 05:11:07;;;;;;;201.32;62.97;;;-12.10;49.30;;;;;;5112317;28;20032;-84
2021/01/17 05:13:35;;;;;;;190.93;61.92;;;-12.20;49.20;;;;;;5093963;28;20495;-84
2021/01/17 05:16:06;;;;;;;210.52;68.03;;;-12.20;49.10;;;;;;5113344;28;20146;-84
2021/01/17 05:18:32;;;;;;;234.77;71.45;;;-12.30;49.10;;;;;;5095249;28;20074;-84
2021/01/17 05:21:00;;;;;;;183.68;57.38;;;-12.30;49.30;;;;;;5112741;28;20106;-83
2021/01/17 05:23:33;;;;;;;130.55;45.88;;;-12.40;49.30;;;;;;5113130;28;20038;-83
2021/01/17 05:25:59;;;;;;;106.93;35.70;;;-12.40;49.20;;;;;;5113263;28;20449;-84
2021/01/17 05:28:25;;;;;;;97.82;33.13;;;-12.50;49.30;;;;;;5112830;28;20035;-83
2021/01/17 05:30:54;;;;;;;84.70;32.08;;;-12.50;49.30;;;;;;5113023;28;20027;-83
2021/01/17 05:33:30;;;;;;;95.90;32.13;;;-12.50;49.40;;;;;;5113781;28;20110;-83
2021/01/17 05:35:57;;;;;;;91.32;30.85;;;-12.60;49.30;;;;;;5096079;28;20107;-83
2021/01/17 05:38:23;;;;;;;96.47;35.05;;;-12.60;49.30;;;;;;5115073;28;20482;-83
2021/01/17 05:40:49;;;;;;;94.40;31.63;;;-12.60;49.30;;;;;;5116545;28;20035;-83
2021/01/17 05:43:15;;;;;;;108.90;37.40;;;-12.60;49.30;;;;;;5117293;28;20028;-84
2021/01/17 05:45:41;;;;;;;117.78;37.65;;;-12.60;49.30;;;;;;5116542;28;20077;-83
2021/01/17 05:48:07;;;;;;;109.50;37.35;;;-12.60;49.20;;;;;;5114274;28;20092;-83
2021/01/17 05:50:34;;;;;;;87.63;32.97;;;-12.60;49.20;;;;;;5114004;28;20036;-85
2021/01/17 05:53:02;;;;;;;84.25;30.60;;;-12.60;49.20;;;;;;5113728;28;20117;-85
2021/01/17 05:55:42;;;;;;;89.72;32.00;;;-12.60;49.10;;;;;;5095819;28;20023;-84
2021/01/17 05:58:31;;;;;;;90.97;32.63;;;-12.60;49.40;;;;;;5093694;28;20048;-84
2021/01/17 06:01:19;;;;;;;83.25;31.20;;;-12.70;48.80;;;;;;5094784;28;20020;-83
2021/01/17 06:03:53;;;;;;;78.65;31.02;;;-12.80;48.80;;;;;;5075972;28;20031;-83
2021/01/17 06:06:32;;;;;;;85.80;32.50;;;-12.90;49.10;;;;;;5093513;28;20024;-83
2021/01/17 06:09:00;;;;;;;103.72;34.78;;;-12.90;49.40;;;;;;5093229;28;20028;-84
2021/01/17 06:11:27;;;;;;;132.40;43.83;;;-12.80;49.60;;;;;;5093589;28;20020;-85
2021/01/17 06:13:53;;;;;;;142.82;46.03;;;-12.70;49.60;;;;;;5093336;28;20253;-84
2021/01/17 06:16:23;;;;;;;182.68;56.03;;;-12.70;49.60;;;;;;5093334;28;20023;-84
2021/01/17 06:19:15;;;;;;;171.48;51.15;;;-12.60;49.60;;;;;;5093181;28;20032;-84
2021/01/17 06:21:48;;;;;;;103.28;35.63;;;-12.60;49.50;;;;;;5072210;28;20114;-84
2021/01/17 06:24:15;;;;;;;154.50;49.47;;;-12.50;49.40;;;;;;5093084;28;20029;-83
2021/01/17 06:26:41;;;;;;;171.43;55.78;;;-12.50;49.40;;;;;;5075269;28;20070;-84
2021/01/17 06:29:09;;;;;;;161.07;55.90;;;-12.40;49.60;;;;;;5093099;28;20060;-84
2021/01/17 06:31:34;;;;;;;163.88;60.22;;;-12.30;49.80;;;;;;5093417;28;20052;-85
2021/01/17 06:34:11;;;;;;;170.38;57.47;;;-12.20;49.80;;;;;;5093018;28;20074;-84
2021/01/17 06:36:38;;;;;;;240.25;74.03;;;-12.10;49.80;;;;;;5075102;28;20123;-84
2021/01/17 06:39:20;;;;;;;255.02;84.70;;;-12.00;49.90;;;;;;5092933;28;20112;-85
2021/01/17 06:41:48;;;;;;;162.73;57.50;;;-11.80;50.00;;;;;;5093443;28;20028;-91
2021/01/17 06:44:14;;;;;;;203.38;63.55;;;-11.60;50.00;;;;;;5093933;28;20055;-89
2021/01/17 06:46:45;;;;;;;229.32;75.03;;;-11.40;50.00;;;;;;5075774;28;20028;-88
2021/01/17 06:49:26;;;;;;;189.50;63.28;;;-11.20;50.00;;;;;;5094286;28;20052;-88
2021/01/17 06:51:53;;;;;;;179.75;60.92;;;-11.10;49.90;;;;;;5075688;28;20016;-89
2021/01/17 06:54:21;;;;;;;162.82;58.60;;;-10.90;49.90;;;;;;5076546;28;20107;-89
2021/01/17 06:56:51;;;;;;;173.32;58.83;;;-10.70;49.90;;;;;;5089480;28;20107;-87
2021/01/17 06:59:35;;;;;;;162.13;59.67;;;-10.60;49.80;;;;;;5103265;28;20439;-90
2021/01/17 07:02:13;;;;;;;145.68;55.28;;;-10.40;49.80;;;;;;5135210;28;20020;-88
2021/01/17 07:04:51;;;;;;;151.90;54.55;;;-10.20;49.70;;;;;;5131427;28;20028;-91
2021/01/17 07:07:45;;;;;;;148.02;55.25;;;-10.10;49.70;;;;;;5126928;28;20027;-89
2021/01/17 07:10:11;;;;;;;136.32;51.05;;;-9.90;49.70;;;;;;5101430;28;20490;-87
2021/01/17 07:12:58;;;;;;;143.85;51.50;;;-9.70;49.80;;;;;;5128404;28;20028;-88
2021/01/17 07:15:32;;;;;;;134.60;50.67;;;-9.50;49.70;;;;;;5128119;28;20067;-89
2021/01/17 07:18:07;;;;;;;122.25;46.60;;;-9.20;49.60;;;;;;5111841;28;20028;-89
2021/01/17 07:20:44;;;;;;;112.22;44.88;;;-9.10;49.30;;;;;;5134938;28;20034;-89
2021/01/17 07:23:14;;;;;;;114.85;45.25;;;-8.90;49.30;;;;;;5134520;28;20481;-90
2021/01/17 07:25:45;;;;;;;127.22;45.65;;;-8.70;49.20;;;;;;5120296;28;20041;-88
2021/01/17 07:28:12;;;;;;;114.20;40.15;;;-8.50;49.10;;;;;;5119985;28;20030;-91
2021/01/17 07:31:02;;;;;;;106.72;39.13;;;-8.30;48.90;;;;;;5119886;28;20034;-89
2021/01/17 07:33:41;;;;;;;86.50;33.40;;;-8.20;48.80;;;;;;5117940;28;20027;-89
2021/01/17 07:36:10;;;;;;;106.78;43.13;;;-8.00;48.80;;;;;;5118153;28;20088;-90
2021/01/17 07:38:38;;;;;;;119.28;43.60;;;-7.80;48.60;;;;;;5120128;28;20454;-90
2021/01/17 07:41:09;;;;;;;132.18;50.20;;;-7.60;48.60;;;;;;5130096;28;20054;-89
2021/01/17 07:43:39;;;;;;;123.97;47.50;;;-7.50;48.30;;;;;;5119479;28;20028;-89
2021/01/17 07:46:15;;;;;;;118.57;43.17;;;-7.30;48.30;;;;;;5118331;28;20094;-90
2021/01/17 07:48:42;;;;;;;119.60;44.92;;;-7.00;48.20;;;;;;5118559;28;20067;-89
2021/01/17 07:51:11;;;;;;;119.28;43.42;;;-6.90;48.10;;;;;;5097538;28;20024;-89
2021/01/17 07:53:37;;;;;;;111.72;38.38;;;-6.60;48.00;;;;;;5117087;28;20084;-90
2021/01/17 07:56:14;;;;;;;92.32;36.28;;;-6.30;48.00;;;;;;5097787;28;20056;-90
2021/01/17 07:58:49;;;;;;;92.55;38.00;;;-5.80;47.90;;;;;;5114107;28;20360;-89
2021/01/17 08:01:40;;;;;;;97.72;35.88;;;-5.20;47.70;;;;;;5118992;28;20160;-92
2021/01/17 08:04:05;;;;;;;78.28;28.90;;;-4.60;47.50;;;;;;5117045;28;20431;-90
2021/01/17 08:06:34;;;;;;;78.22;29.10;;;-4.00;47.90;;;;;;5115969;28;20023;-88
2021/01/17 08:09:03;;;;;;;84.88;31.00;;;-3.30;47.90;;;;;;5113513;28;20027;-89
2021/01/17 08:11:55;;;;;;;87.70;33.28;;;-2.60;47.90;;;;;;5116886;28;20024;-91
2021/01/17 08:14:23;;;;;;;63.22;26.45;;;-1.80;47.20;;;;;;5114589;28;20016;-90
2021/01/17 08:17:18;;;;;;;52.97;24.25;;;-0.90;47.50;;;;;;5117595;28;20020;-91
2021/01/17 08:19:53;;;;;;;48.28;22.73;;;-0.10;45.50;;;;;;5116060;28;20406;-91
2021/01/17 08:22:19;;;;;;;64.10;26.95;;;0.60;44.90;;;;;;5119801;28;20028;-92
2021/01/17 08:25:03;;;;;;;64.18;28.42;;;1.20;44.40;;;;;;5120006;28;20035;-92
2021/01/17 08:33:18;;;;;;;36.63;18.08;;;2.80;41.30;;;;;;5109606;28;20080;-94
2021/01/17 08:35:44;;;;;;;35.05;16.65;;;3.50;41.60;;;;;;5105978;28;20028;-95
2021/01/17 08:38:22;;;;;;;32.05;16.50;;;3.90;40.50;;;;;;5118291;28;20114;-94
2021/01/17 08:40:50;;;;;;;36.80;19.13;;;4.30;39.10;;;;;;5121340;28;20027;-92
2021/01/17 08:43:18;;;;;;;49.90;25.38;;;4.70;39.10;;;;;;5123962;28;20023;-95
2021/01/17 08:45:48;;;;;;;40.63;21.02;;;5.10;38.10;;;;;;5129398;28;20020;-94
2021/01/17 08:48:17;;;;;;;56.17;26.73;;;5.40;37.10;;;;;;5128141;28;20402;-95
2021/01/17 08:51:11;;;;;;;51.55;26.20;;;5.60;36.60;;;;;;5108826;28;20063;-95
2021/01/17 08:53:37;;;;;;;45.13;23.67;;;6.00;35.60;;;;;;5110266;28;20059;-94
2021/01/17 08:56:14;;;;;;;50.33;22.83;;;6.40;36.10;;;;;;5123325;28;20040;-94
2021/01/17 08:58:40;;;;;;;43.38;23.05;;;6.80;34.60;;;;;;5121447;28;20066;-95
2021/01/17 09:01:09;;;;;;;50.70;25.63;;;7.00;34.70;;;;;;5123365;28;20023;-94
2021/01/17 09:03:37;;;;;;;42.70;23.20;;;7.30;34.10;;;;;;5130694;28;20027;-94
2021/01/17 09:06:10;;;;;;;36.33;20.55;;;7.60;33.80;;;;;;5111291;28;20024;-95
2021/01/17 09:08:35;;;;;;;42.10;21.17;;;7.90;33.20;;;;;;5131637;28;20038;-93
2021/01/17 09:11:02;;;;;;;33.22;19.33;;;8.00;32.80;;;;;;5107082;28;20031;-95
2021/01/17 09:13:29;;;;;;;49.22;24.80;;;8.30;32.50;;;;;;5132186;28;20034;-95
2021/01/17 09:16:03;;;;;;;39.65;22.13;;;8.50;31.80;;;;;;5124344;28;20054;-94
2021/01/17 09:18:33;;;;;;;36.33;20.77;;;8.60;31.20;;;;;;5126103;28;20153;-95
2021/01/17 09:21:00;;;;;;;36.85;19.15;;;8.70;31.00;;;;;;5100501;28;20068;-94
2021/01/17 09:23:26;;;;;;;31.25;18.70;;;8.80;30.90;;;;;;5123100;28;20016;-95
2021/01/17 09:25:58;;;;;;;33.47;19.08;;;9.00;30.60;;;;;;5123425;28;20019;-95
2021/01/17 09:28:27;;;;;;;32.00;18.08;;;9.00;29.80;;;;;;5108963;28;20024;-91
2021/01/17 09:30:58;;;;;;;32.58;20.55;;;9.20;29.80;;;;;;5133562;28;20024;-90
2021/01/17 09:33:24;;;;;;;27.35;15.77;;;9.40;29.50;;;;;;5132362;28;20020;-90
2021/01/17 09:35:51;;;;;;;27.55;15.25;;;9.60;29.30;;;;;;5133491;28;20020;-94
2021/01/17 09:38:19;;;;;;;33.53;18.98;;;9.70;29.00;;;;;;5133608;28;20016;-93
2021/01/17 09:40:50;;;;;;;39.47;21.35;;;9.80;28.80;;;;;;5132749;28;20100;-93
2021/01/17 09:43:17;;;;;;;37.13;21.23;;;10.00;28.70;;;;;;5128644;28;20067;-90
2021/01/17 09:45:56;;;;;;;37.13;21.63;;;10.40;28.70;;;;;;5116007;28;20027;-90
2021/01/17 10:31:23;;;;;;;59.50;36.53;;;12.40;26.10;;;;;;4833935;26;20060;-82
2021/01/17 10:33:49;;;;;;;58.00;30.00;;;12.80;26.20;;;;;;5057417;28;20021;-84
2021/01/17 10:36:18;;;;;;;48.28;26.85;;;12.40;25.80;;;;;;5056599;28;20029;-81
2021/01/17 10:38:52;;;;;;;48.10;27.58;;;11.80;25.70;;;;;;5049514;28;20061;-81
2021/01/17 10:41:26;;;;;;;47.53;28.02;;;11.10;25.60;;;;;;5055201;28;20021;-85
2021/01/17 10:44:07;;;;;;;43.50;26.05;;;10.30;25.90;;;;;;5055539;28;20083;-81
2021/01/17 10:46:42;;;;;;;41.38;24.05;;;10.00;26.20;;;;;;5054638;28;20028;-85
2021/01/17 10:49:10;;;;;;;48.03;26.92;;;9.90;26.50;;;;;;5056144;28;20393;-85
2021/01/17 10:51:47;;;;;;;43.25;24.88;;;9.70;26.70;;;;;;5035473;28;20032;-84
2021/01/17 10:54:31;;;;;;;45.10;24.98;;;9.80;26.60;;;;;;5056236;28;20025;-83
2021/01/17 10:57:03;;;;;;;41.40;23.30;;;10.10;26.60;;;;;;5032043;28;20124;-83
2021/01/17 10:59:31;;;;;;;41.83;23.80;;;10.30;26.50;;;;;;5056381;28;20409;-82
2021/01/17 11:01:57;;;;;;;43.75;24.23;;;10.00;26.40;;;;;;5053181;28;20099;-82
2021/01/17 11:04:41;;;;;;;33.60;19.15;;;9.30;26.20;;;;;;5047471;28;20032;-83
2021/01/17 11:07:16;;;;;;;32.53;18.48;;;8.30;26.10;;;;;;5052390;28;20065;-82
2021/01/17 11:09:42;;;;;;;35.38;19.42;;;7.60;26.60;;;;;;5055460;28;20068;-85
2021/01/17 11:12:08;;;;;;;34.50;18.80;;;7.00;26.90;;;;;;5050394;28;20052;-83
2021/01/17 11:14:35;;;;;;;37.33;19.52;;;6.40;26.90;;;;;;5052752;28;20025;-83
2021/01/17 11:17:02;;;;;;;34.83;18.17;;;5.90;27.10;;;;;;5037320;28;20029;-81
2021/01/17 11:19:40;;;;;;;34.53;18.65;;;5.30;27.20;;;;;;5049428;28;20041;-81
2021/01/17 11:22:07;;;;;;;33.85;17.45;;;4.50;27.30;;;;;;5055338;28;20033;-82
2021/01/17 11:24:41;;;;;;;34.10;17.92;;;3.90;27.60;;;;;;5054879;28;20017;-84
2021/01/17 11:27:06;;;;;;;32.45;16.42;;;3.30;27.90;;;;;;5049031;28;20041;-83
2021/01/17 11:29:32;;;;;;;25.33;13.75;;;2.90;28.20;;;;;;5051992;28;20045;-82
2021/01/17 11:32:03;;;;;;;29.95;13.93;;;2.50;28.40;;;;;;5033611;28;20029;-81
2021/01/17 11:34:36;;;;;;;31.50;14.73;;;2.20;28.60;;;;;;5030518;28;20482;-84
2021/01/17 11:37:03;;;;;;;31.23;15.70;;;2.10;28.90;;;;;;5035454;28;20030;-82
2021/01/17 11:39:29;;;;;;;30.40;15.13;;;2.50;29.70;;;;;;5031400;28;20071;-84
2021/01/17 11:42:00;;;;;;;28.25;15.40;;;3.80;30.00;;;;;;5033328;28;20026;-81
2021/01/17 11:44:35;;;;;;;25.20;14.07;;;5.10;29.80;;;;;;5035246;28;20021;-83
2021/01/17 11:47:16;;;;;;;;;;;6.30;29.10;;;;;;5029216;28;20103;-85
2021/01/17 11:49:42;;;;;;;32.05;15.55;;;7.10;29.10;;;;;;5015722;28;19905;-83
2021/01/17 11:52:14;;;;;;;30.90;16.45;;;8.00;29.00;;;;;;5015679;28;20079;-83
2021/01/17 11:54:41;;;;;;;31.98;16.80;;;8.80;28.40;;;;;;5014970;28;20492;-83
2021/01/17 11:57:11;;;;;;;24.83;14.52;;;9.60;28.10;;;;;;5015392;28;20432;-82
2021/01/17 11:59:38;;;;;;;25.17;14.30;;;10.20;27.60;;;;;;5015552;28;20076;-85
2021/01/17 12:02:43;;;;;;;31.13;16.10;;;10.80;27.30;;;;;;4997524;28;20368;-82
2021/01/17 12:05:15;;;;;;;28.90;16.13;;;11.30;26.40;;;;;;5015895;28;20037;-84
2021/01/17 12:08:12;;;;;;;24.08;14.85;;;11.70;26.60;;;;;;5015247;28;20044;-80
2021/01/17 12:10:38;;;;;;;35.97;21.48;;;12.10;25.90;;;;;;4994200;28;20034;-83
2021/01/17 12:13:05;;;;;;;34.33;17.00;;;12.20;26.10;;;;;;5015464;28;20026;-84
2021/01/17 12:15:30;;;;;;;29.98;16.90;;;12.20;25.70;;;;;;5015002;28;20177;-83
2021/01/17 12:18:21;;;;;;;26.58;14.82;;;12.30;25.60;;;;;;5047867;22;20079;-93
2021/01/17 12:20:46;;;;;;;26.52;16.02;;;12.30;24.90;;;;;;5068498;28;20025;-93
2021/01/17 12:23:13;;;;;;;28.50;17.02;;;12.20;25.20;;;;;;5085227;28;20020;-92
2021/01/17 12:25:39;;;;;;;31.75;17.00;;;12.10;25.00;;;;;;5086038;28;20119;-93
2021/01/17 12:28:05;;;;;;;29.20;15.60;;;12.00;25.00;;;;;;5090459;28;20036;-93
2021/01/17 12:30:34;;;;;;;28.75;15.38;;;12.10;25.00;;;;;;5086956;28;20028;-91
2021/01/17 12:32:59;;;;;;;31.63;14.63;;;12.10;24.80;;;;;;5082406;28;20056;-90
2021/01/17 12:35:26;;;;;;;27.60;15.35;;;11.90;24.70;;;;;;5079439;28;20341;-95
2021/01/17 12:37:51;;;;;;;28.13;16.25;;;11.80;24.60;;;;;;5078894;28;20039;-93
2021/01/17 12:40:17;;;;;;;28.17;16.77;;;11.70;24.60;;;;;;5080954;28;20147;-94
2021/01/17 12:42:43;;;;;;;32.35;16.17;;;11.50;24.50;;;;;;5087881;28;20078;-89
2021/01/17 12:45:09;;;;;;;29.00;15.10;;;11.50;24.70;;;;;;5095160;28;20020;-92
2021/01/17 12:47:35;;;;;;;27.92;15.85;;;11.40;24.50;;;;;;5077752;28;20024;-95
2021/01/17 12:50:01;;;;;;;33.25;16.63;;;11.40;24.60;;;;;;5078969;28;20363;-93
2021/01/17 12:52:49;;;;;;;29.42;16.52;;;11.30;24.50;;;;;;5102328;22;20066;-79
2021/01/17 12:58:22;;;;;;;29.88;17.20;;;11.00;24.50;;;;;;5163462;22;20048;-81
2021/01/17 13:00:48;;;;;;;37.53;18.98;;;10.80;24.40;;;;;;5074539;28;20444;-85
2021/01/17 13:03:15;;;;;;;36.08;19.98;;;10.60;24.60;;;;;;5075357;28;20122;-83
2021/01/17 13:05:53;;;;;;;35.13;19.02;;;10.50;24.70;;;;;;5073249;28;20051;-84
2021/01/17 13:08:20;;;;;;;35.70;19.30;;;10.30;24.50;;;;;;5073387;28;20172;-82
2021/01/17 13:10:54;;;;;;;35.75;19.35;;;10.20;24.70;;;;;;5073339;28;20020;-83
2021/01/17 13:13:20;;;;;;;40.97;21.33;;;9.90;24.60;;;;;;5074269;28;20037;-82
2021/01/17 13:15:56;;;;;;;38.45;21.48;;;9.80;24.70;;;;;;5075751;28;20032;-83
2021/01/17 13:18:24;;;;;;;44.85;24.00;;;9.50;24.50;;;;;;5073279;28;20122;-82
2021/01/17 13:20:55;;;;;;;38.40;21.98;;;9.20;24.60;;;;;;5072958;28;20028;-85
2021/01/17 13:23:21;;;;;;;37.40;21.15;;;9.00;24.60;;;;;;5073263;28;20028;-84
2021/01/17 13:25:47;;;;;;;46.05;26.45;;;8.70;24.70;;;;;;5055373;28;20111;-81
2021/01/17 13:28:14;;;;;;;55.60;28.45;;;8.30;24.60;;;;;;5072496;28;20043;-82